Gosnells City, Australia

1:55 PM AWST on March 25, 2017 (GMT +0800)
Gosnells | | Change Station

Elev 39 ft 32.07 °S, 115.99 °E | Updated 5 minutes ago

Clear
Clear
84.6 °F
Feels Like 85 °F
N
3.7
Wind Variable Wind from WSW
Gusts 11.4 mph

Today
High -- | Low -- °F
--% Chance of Precip.
Yesterday
High -- | Low -- °F
Precip. -- in
Pressure 29.80 in
Visibility 6.2 miles
Clouds Few 4600 ft
Heat Index 85 °F
Dew Point 61 °F
Humidity 45%
Rainfall 0.00 in
Snow Depth Not available.
6:22 AM 6:20 PM
Waning Crescent, 10% visible
METAR YPPH 250500Z 22007KT 9999 FEW046 27/13 Q1009 NOSIG
Pressure 29.80 in
Visibility 6.2 miles
Clouds Few 4600 ft
Heat Index 85 °F
Dew Point 61 °F
Humidity 45%
Rainfall 0.00 in
Snow Depth Not available.
6:22 AM 6:20 PM
Waning Crescent, 10% visible
METAR YPPH 250500Z 22007KT 9999 FEW046 27/13 Q1009 NOSIG

Get Severe Weather Alerts

Thanks for signing up!

Be on the lookout for a verification email in your inbox.

You'll start receiving the daily forecast at 8 AM.

×

10-Day Weather Forecast

×

Almanac

Astronomy

Mar. 25, 2017 Rise Set
Actual Time
Civil Twilight
Nautical Twilight
Astronomical Twilight
Moon
Length of Visible Light
Length of Day
Tomorrow will be .
, % of the Moon is Illuminated

Today's Extremes

Country Highs Country Lows

Community

WunderPhotos

Upload Photos

1,962,540 photos uploaded!

WunderBlog® & News

Nearby

Air Quality

  Air Quality AQ Index Pollutant
Not available.

Snow Depth

Station Depth Elevation

Earthquake Activity

City Distance Mag. Time & Date
Minimum magnitude displayed is 2.5.

Earthquake Activity

City Distance Mag. Time & Date
Minimum magnitude displayed is 2.5.

Coastal Water Temperatures

Place Temperature

Stations

Nearby Weather Stations

Station Location Temp. Windchill Dew Point Humidity Wind Precip. Elev Updated Type